• Join FlightAware (Why Join?)
  • Login
  • US Flag 
02:04PM EDT


 

Airport Tracker/Info


-or-


 

Live Flight TrackerFlight Track Log ✈ JBU55 ✈ 26-May-2013 ✈ KBTV - KJFK

Flight Track Log - Related Links

Times and Time Zones

All times are in EDT time to prevent confusion due to time zone crossing. See the JBU55 flight status page for this flight to view local times or setup timezone preferences in your user account.

Time Position Orientation Groundspeed Altitude Reporting Facility
EDT Latitude Longitude Course Direction KTS MPH feet Rate Location/Type
02:11PM 44.1312 -73.2758 195° South  Level FlightAware Approximate
02:11PM 44.4156 -73.4108 196° South 288 331 9,100  Level Boston Center
02:12PM 44.0467 -73.3067 194° South  Level FlightAware Approximate
02:12PM 44.3278 -73.4383 193° South 293 337 11,700  Level Boston Center
02:13PM 43.9897 -73.3257 193° South  Level FlightAware Approximate
02:13PM 44.2153 -73.4539 186° South 358 412 14,300  Level Boston Center
02:14PM 43.9327 -73.3447 193° South  Level FlightAware Approximate
02:14PM 44.1067 -73.4694 186° South 393 452 16,800  Level Boston Center
02:15PM 43.8762 -73.3663 196° South  Level FlightAware Approximate
02:15PM 43.9939 -73.4878 187° South 409 471 19,000  Level Boston Center
02:16PM 43.8199 -73.3889 196° South  Level FlightAware Approximate
02:16PM 43.8772 -73.5058 186° South 420 483 21,300  Level Boston Center
02:17PM 43.7636 -73.4114 196° South  Level FlightAware Approximate
02:17PM 43.7603 -73.5239 186° South 426 490 23,300  Level Boston Center
02:18PM 43.6350 -73.5389 185° South 439 505 24,900 1,500 Climbing Boston Center
02:19PM 43.5058 -73.5594 187° South 456 525 26,400 1,380 Climbing Boston Center
02:20PM 43.3764 -73.5797 186° South 464 534 27,700 780 Climbing Boston Center
02:21PM 43.2428 -73.5944 185° South 477 549 28,000 120 Climbing Boston Center
02:22PM 43.1069 -73.6175 187° South 483 556 28,000  Level Boston Center
02:23PM 42.9736 -73.6375 186° South 483 556 28,000  Level Boston Center
02:24PM 42.8567 -73.6581 187° South 478 550 28,000  Level Boston Center
02:25PM 42.7231 -73.6781 186° South 478 550 28,000  Level Boston Center
02:26PM 42.5894 -73.6978 186° South 483 556 28,000  Level Boston Center
02:27PM 42.4558 -73.7147 185° South 483 556 28,000  Level Boston Center
02:28PM 42.3264 -73.7347 187° South 483 556 28,000  Level Boston Center
02:29PM 42.1947 -73.7517 185° South 483 556 28,000  Level Boston Center
02:30PM 42.0633 -73.7711 186° South 483 556 28,000 -240 Level Boston Center
02:31PM 41.9339 -73.7908 186° South 483 556 27,600 -1,020 Descending Boston Center
02:32PM 41.8044 -73.8075 185° South 483 556 26,000 -1,620 Descending Boston Center
02:34PM 41.5739 -73.9047 198° South 419 482 22,700 -1,560 Descending New York Center
02:35PM 41.4803 -73.9861 213° Southwest 410 472 21,200 -1,380 Descending New York Center
02:36PM 41.3864 -74.0644 212° Southwest 417 480 20,000 -600 Descending New York Center
02:37PM 41.3461 -74.1675 243° Southwest 352 405 20,000  Level New York Center
02:38PM 41.3053 -74.2814 245° Southwest 328 377 20,000  Level New York Center
02:39PM 41.2769 -74.3931 251° West 328 377 20,000  Level New York Center
02:40PM 41.2442 -74.5017 248° West 322 371 20,000  Level New York Center
02:41PM 41.1731 -74.5775 219° Southwest 311 358 20,000  Level New York Center
02:42PM 41.0781 -74.6192 198° South 331 381 20,000  Level New York Center
02:43PM 41.0056 -74.5408 141° Southeast 294 338 20,000  Level New York Center
02:44PM 41.0469 -74.4219 65° Northeast 198 228 20,000  Level New York Center
02:45PM 41.1000 -74.3203 55° Northeast 247 284 20,000  Level New York Center
02:46PM 41.1286 -74.1978 73° East 302 348 20,000 -120 Level New York Center
02:47PM 41.0575 -74.1308 145° Southeast 268 308 19,800 -540 Descending New York Center
02:48PM 40.9392 -74.1167 175° South 299 344 19,000 -840 Descending New York Center
02:49PM 40.8425 -74.0764 163° South 352 405 18,200 -1,200 Descending New York Center
02:50PM 40.7456 -74.0361 163° South 368 423 16,700 -1,680 Descending New York Center
02:51PM 40.6531 -73.9933 161° South 362 417 14,900 -1,800 Descending New York Center
02:52PM 40.5625 -73.9508 160° South 350 403 13,200 -2,040 Descending New York Center
02:53PM 40.4875 -73.8792 144° Southeast 338 389 10,900 -2,220 Descending New York Center
02:54PM 40.4181 -73.8189 147° Southeast 338 389 8,800 -2,160 Descending New York Center
02:55PM 40.3408 -73.7472 145° Southeast 326 375 6,600 -2,040 Descending New York Center
02:56PM 40.2947 -73.6772 131° Southeast 302 348 4,800 -1,800 Descending New York Center
02:57PM 40.3425 -73.5975 52° Northeast 195 224 3,100 -900 Descending New York Center
02:58PM 40.3917 -73.5422 41° Northeast 219 252 3,000 -60 Descending New York Center
02:59PM 40.4431 -73.4872 39° Northeast 224 258 3,000  Level New York Center
03:00PM 40.4931 -73.4811 North 203 234 3,000  Level New York Center
03:01PM 40.5319 -73.5153 326° Northwest 189 217 3,000  Level New York Center
03:02PM 40.5667 -73.5833 304° West 177 204 3,000 -420 Level New York TRACON
03:03PM 40.5833 -73.6333 294° West 152 175 2,200 -720 Descending New York TRACON
03:04PM 40.6000 -73.6833 294° West 121 139 1,600 -720 Descending New York TRACON
03:05PM 40.6167 -73.7167 303° West 124 143 900 -780 Descending New York TRACON
03:07PM 40.6333 -73.7667 353° North  Level FlightAware Approximate